sensor_id;sensor_type;location;lat;lon;timestamp;P1;durP1;ratioP1;P2;durP2;ratioP2
12334;SDS011;6233;51.560;9.986;2023-05-15T00:02:40;5.27;;;4.80;;
12334;SDS011;6233;51.560;9.986;2023-05-15T00:05:43;6.33;;;5.73;;
12334;SDS011;6233;51.560;9.986;2023-05-15T00:08:45;6.47;;;5.87;;
12334;SDS011;6233;51.560;9.986;2023-05-15T00:11:47;6.17;;;5.67;;
12334;SDS011;6233;51.560;9.986;2023-05-15T00:14:49;8.30;;;5.93;;
12334;SDS011;6233;51.560;9.986;2023-05-15T00:17:51;6.90;;;6.20;;
12334;SDS011;6233;51.560;9.986;2023-05-15T00:20:53;6.93;;;6.23;;
12334;SDS011;6233;51.560;9.986;2023-05-15T00:23:55;6.77;;;6.10;;
12334;SDS011;6233;51.560;9.986;2023-05-15T00:26:59;6.87;;;6.17;;
12334;SDS011;6233;51.560;9.986;2023-05-15T00:30:01;6.07;;;5.57;;
12334;SDS011;6233;51.560;9.986;2023-05-15T00:33:03;6.70;;;5.90;;
12334;SDS011;6233;51.560;9.986;2023-05-15T00:36:06;6.47;;;5.87;;
12334;SDS011;6233;51.560;9.986;2023-05-15T00:39:08;6.83;;;6.23;;
12334;SDS011;6233;51.560;9.986;2023-05-15T00:42:10;6.00;;;5.50;;
12334;SDS011;6233;51.560;9.986;2023-05-15T00:45:13;6.50;;;5.87;;
12334;SDS011;6233;51.560;9.986;2023-05-15T00:48:16;6.53;;;5.93;;
12334;SDS011;6233;51.560;9.986;2023-05-15T00:51:18;9.10;;;5.93;;
12334;SDS011;6233;51.560;9.986;2023-05-15T00:54:20;6.80;;;6.20;;
12334;SDS011;6233;51.560;9.986;2023-05-15T00:57:22;6.17;;;5.57;;
12334;SDS011;6233;51.560;9.986;2023-05-15T01:00:25;7.10;;;6.50;;
12334;SDS011;6233;51.560;9.986;2023-05-15T01:03:27;6.27;;;5.77;;
12334;SDS011;6233;51.560;9.986;2023-05-15T01:06:29;6.13;;;5.53;;
12334;SDS011;6233;51.560;9.986;2023-05-15T01:09:32;6.67;;;6.13;;
12334;SDS011;6233;51.560;9.986;2023-05-15T01:12:35;6.23;;;5.63;;
12334;SDS011;6233;51.560;9.986;2023-05-15T01:15:38;6.27;;;5.70;;
12334;SDS011;6233;51.560;9.986;2023-05-15T01:18:41;7.10;;;6.43;;
12334;SDS011;6233;51.560;9.986;2023-05-15T01:24:56;6.93;;;6.23;;
12334;SDS011;6233;51.560;9.986;2023-05-15T01:28:04;6.80;;;6.20;;
12334;SDS011;6233;51.560;9.986;2023-05-15T01:31:13;7.30;;;6.70;;
12334;SDS011;6233;51.560;9.986;2023-05-15T01:34:16;6.90;;;6.30;;
12334;SDS011;6233;51.560;9.986;2023-05-15T01:37:21;7.47;;;6.77;;
12334;SDS011;6233;51.560;9.986;2023-05-15T01:40:25;7.00;;;6.40;;
12334;SDS011;6233;51.560;9.986;2023-05-15T01:43:28;6.90;;;6.30;;
12334;SDS011;6233;51.560;9.986;2023-05-15T01:46:33;7.00;;;6.40;;
12334;SDS011;6233;51.560;9.986;2023-05-15T01:49:37;7.07;;;6.57;;
12334;SDS011;6233;51.560;9.986;2023-05-15T01:52:56;7.17;;;6.47;;
12334;SDS011;6233;51.560;9.986;2023-05-15T01:55:59;7.20;;;6.60;;
12334;SDS011;6233;51.560;9.986;2023-05-15T01:59:02;7.00;;;6.37;;
12334;SDS011;6233;51.560;9.986;2023-05-15T02:02:05;6.30;;;5.73;;
12334;SDS011;6233;51.560;9.986;2023-05-15T02:05:08;6.73;;;6.13;;
12334;SDS011;6233;51.560;9.986;2023-05-15T02:08:10;6.50;;;5.83;;
12334;SDS011;6233;51.560;9.986;2023-05-15T02:11:13;6.90;;;6.30;;
12334;SDS011;6233;51.560;9.986;2023-05-15T02:14:15;6.87;;;6.10;;
12334;SDS011;6233;51.560;9.986;2023-05-15T02:17:18;7.30;;;6.53;;
12334;SDS011;6233;51.560;9.986;2023-05-15T02:20:20;7.00;;;6.40;;
12334;SDS011;6233;51.560;9.986;2023-05-15T02:23:23;6.97;;;6.37;;
12334;SDS011;6233;51.560;9.986;2023-05-15T02:36:05;7.37;;;6.77;;
12334;SDS011;6233;51.560;9.986;2023-05-15T02:39:08;7.80;;;7.10;;
12334;SDS011;6233;51.560;9.986;2023-05-15T02:42:12;7.37;;;6.77;;
12334;SDS011;6233;51.560;9.986;2023-05-15T02:45:15;7.07;;;6.47;;
12334;SDS011;6233;51.560;9.986;2023-05-15T02:48:17;7.53;;;6.93;;
12334;SDS011;6233;51.560;9.986;2023-05-15T02:51:19;8.03;;;7.23;;
12334;SDS011;6233;51.560;9.986;2023-05-15T02:54:22;8.07;;;7.27;;
12334;SDS011;6233;51.560;9.986;2023-05-15T02:57:24;7.23;;;6.63;;
12334;SDS011;6233;51.560;9.986;2023-05-15T03:00:26;7.63;;;6.93;;
12334;SDS011;6233;51.560;9.986;2023-05-15T03:03:28;7.37;;;6.77;;
12334;SDS011;6233;51.560;9.986;2023-05-15T03:06:30;8.10;;;7.30;;
12334;SDS011;6233;51.560;9.986;2023-05-15T03:09:33;8.30;;;7.53;;
12334;SDS011;6233;51.560;9.986;2023-05-15T03:12:35;8.97;;;7.50;;
12334;SDS011;6233;51.560;9.986;2023-05-15T03:15:37;8.83;;;8.03;;
12334;SDS011;6233;51.560;9.986;2023-05-15T03:18:39;8.07;;;7.27;;
12334;SDS011;6233;51.560;9.986;2023-05-15T03:21:42;8.20;;;7.47;;
12334;SDS011;6233;51.560;9.986;2023-05-15T03:24:44;8.13;;;7.43;;
12334;SDS011;6233;51.560;9.986;2023-05-15T03:27:46;9.30;;;8.30;;
12334;SDS011;6233;51.560;9.986;2023-05-15T03:30:48;8.23;;;7.53;;
12334;SDS011;6233;51.560;9.986;2023-05-15T03:33:50;8.60;;;7.80;;
12334;SDS011;6233;51.560;9.986;2023-05-15T03:36:52;8.53;;;7.67;;
12334;SDS011;6233;51.560;9.986;2023-05-15T03:39:55;9.13;;;8.27;;
12334;SDS011;6233;51.560;9.986;2023-05-15T03:42:57;9.07;;;8.03;;
12334;SDS011;6233;51.560;9.986;2023-05-15T03:45:59;9.37;;;8.23;;
12334;SDS011;6233;51.560;9.986;2023-05-15T03:49:01;9.00;;;8.17;;
12334;SDS011;6233;51.560;9.986;2023-05-15T03:52:04;8.40;;;7.60;;
12334;SDS011;6233;51.560;9.986;2023-05-15T03:55:06;9.23;;;8.40;;
12334;SDS011;6233;51.560;9.986;2023-05-15T03:58:08;9.73;;;8.60;;
12334;SDS011;6233;51.560;9.986;2023-05-15T04:01:11;9.60;;;8.60;;
12334;SDS011;6233;51.560;9.986;2023-05-15T04:04:13;8.70;;;7.80;;
12334;SDS011;6233;51.560;9.986;2023-05-15T04:07:15;9.17;;;8.37;;
12334;SDS011;6233;51.560;9.986;2023-05-15T04:10:17;8.70;;;7.80;;
12334;SDS011;6233;51.560;9.986;2023-05-15T04:13:19;8.57;;;7.63;;
12334;SDS011;6233;51.560;9.986;2023-05-15T04:16:21;7.97;;;7.17;;
12334;SDS011;6233;51.560;9.986;2023-05-15T04:19:23;7.77;;;7.03;;
12334;SDS011;6233;51.560;9.986;2023-05-15T04:22:26;7.43;;;6.73;;
12334;SDS011;6233;51.560;9.986;2023-05-15T04:25:28;7.43;;;6.73;;
12334;SDS011;6233;51.560;9.986;2023-05-15T04:28:30;6.77;;;6.27;;
12334;SDS011;6233;51.560;9.986;2023-05-15T04:31:33;6.73;;;6.23;;
12334;SDS011;6233;51.560;9.986;2023-05-15T04:34:35;7.57;;;6.87;;
12334;SDS011;6233;51.560;9.986;2023-05-15T04:37:40;7.77;;;7.07;;
12334;SDS011;6233;51.560;9.986;2023-05-15T04:40:45;7.30;;;6.70;;
12334;SDS011;6233;51.560;9.986;2023-05-15T04:43:47;7.83;;;7.10;;
12334;SDS011;6233;51.560;9.986;2023-05-15T04:46:49;7.37;;;6.67;;
12334;SDS011;6233;51.560;9.986;2023-05-15T04:49:51;7.63;;;6.77;;
12334;SDS011;6233;51.560;9.986;2023-05-15T04:52:53;8.10;;;7.40;;
12334;SDS011;6233;51.560;9.986;2023-05-15T04:55:55;8.10;;;7.40;;
12334;SDS011;6233;51.560;9.986;2023-05-15T04:58:57;7.40;;;6.80;;
12334;SDS011;6233;51.560;9.986;2023-05-15T05:02:00;8.47;;;7.67;;
12334;SDS011;6233;51.560;9.986;2023-05-15T05:05:02;7.80;;;7.10;;
12334;SDS011;6233;51.560;9.986;2023-05-15T05:08:04;8.10;;;7.30;;
12334;SDS011;6233;51.560;9.986;2023-05-15T05:11:06;8.73;;;7.90;;
12334;SDS011;6233;51.560;9.986;2023-05-15T05:14:12;8.50;;;7.80;;
12334;SDS011;6233;51.560;9.986;2023-05-15T05:17:15;8.03;;;7.17;;
12334;SDS011;6233;51.560;9.986;2023-05-15T05:20:17;8.17;;;7.47;;
12334;SDS011;6233;51.560;9.986;2023-05-15T05:23:19;7.47;;;6.87;;
12334;SDS011;6233;51.560;9.986;2023-05-15T05:26:21;7.40;;;6.80;;
12334;SDS011;6233;51.560;9.986;2023-05-15T05:29:23;8.07;;;7.23;;
12334;SDS011;6233;51.560;9.986;2023-05-15T05:32:26;7.60;;;6.97;;
12334;SDS011;6233;51.560;9.986;2023-05-15T05:35:28;7.60;;;6.90;;
12334;SDS011;6233;51.560;9.986;2023-05-15T05:38:30;7.13;;;6.53;;
12334;SDS011;6233;51.560;9.986;2023-05-15T05:41:32;6.67;;;5.80;;
12334;SDS011;6233;51.560;9.986;2023-05-15T05:44:35;6.17;;;5.57;;
12334;SDS011;6233;51.560;9.986;2023-05-15T05:47:37;6.13;;;5.63;;
12334;SDS011;6233;51.560;9.986;2023-05-15T05:54:04;6.07;;;5.47;;
12334;SDS011;6233;51.560;9.986;2023-05-15T05:57:06;6.33;;;5.83;;
12334;SDS011;6233;51.560;9.986;2023-05-15T06:00:08;6.00;;;5.50;;
12334;SDS011;6233;51.560;9.986;2023-05-15T06:03:11;6.40;;;5.90;;
12334;SDS011;6233;51.560;9.986;2023-05-15T06:06:13;5.30;;;4.83;;
12334;SDS011;6233;51.560;9.986;2023-05-15T06:09:15;5.17;;;4.77;;
12334;SDS011;6233;51.560;9.986;2023-05-15T06:12:18;6.53;;;5.10;;
12334;SDS011;6233;51.560;9.986;2023-05-15T06:15:23;6.27;;;5.80;;
12334;SDS011;6233;51.560;9.986;2023-05-15T06:18:26;6.10;;;5.50;;
12334;SDS011;6233;51.560;9.986;2023-05-15T06:21:28;6.50;;;5.10;;
12334;SDS011;6233;51.560;9.986;2023-05-15T06:24:31;7.13;;;5.37;;
12334;SDS011;6233;51.560;9.986;2023-05-15T06:27:33;7.03;;;6.33;;
12334;SDS011;6233;51.560;9.986;2023-05-15T06:30:35;6.73;;;6.13;;
12334;SDS011;6233;51.560;9.986;2023-05-15T06:33:37;8.10;;;6.20;;
12334;SDS011;6233;51.560;9.986;2023-05-15T06:36:39;7.17;;;6.57;;
12334;SDS011;6233;51.560;9.986;2023-05-15T06:39:41;6.57;;;5.93;;
12334;SDS011;6233;51.560;9.986;2023-05-15T06:42:43;7.03;;;6.43;;
12334;SDS011;6233;51.560;9.986;2023-05-15T06:45:47;7.57;;;6.60;;
12334;SDS011;6233;51.560;9.986;2023-05-15T06:48:51;6.47;;;5.87;;
12334;SDS011;6233;51.560;9.986;2023-05-15T06:51:53;7.30;;;6.50;;
12334;SDS011;6233;51.560;9.986;2023-05-15T06:54:55;7.43;;;6.83;;
12334;SDS011;6233;51.560;9.986;2023-05-15T06:57:57;7.57;;;6.87;;
12334;SDS011;6233;51.560;9.986;2023-05-15T07:00:59;8.80;;;7.90;;
12334;SDS011;6233;51.560;9.986;2023-05-15T07:04:04;8.20;;;7.37;;
12334;SDS011;6233;51.560;9.986;2023-05-15T07:07:06;7.47;;;6.67;;
12334;SDS011;6233;51.560;9.986;2023-05-15T07:10:08;7.27;;;6.67;;
12334;SDS011;6233;51.560;9.986;2023-05-15T07:13:11;8.30;;;7.40;;
12334;SDS011;6233;51.560;9.986;2023-05-15T07:16:13;7.80;;;7.10;;
12334;SDS011;6233;51.560;9.986;2023-05-15T07:23:12;8.70;;;7.90;;
12334;SDS011;6233;51.560;9.986;2023-05-15T07:26:14;8.37;;;7.60;;
12334;SDS011;6233;51.560;9.986;2023-05-15T07:29:32;8.87;;;8.07;;
12334;SDS011;6233;51.560;9.986;2023-05-15T07:32:34;8.13;;;7.33;;
12334;SDS011;6233;51.560;9.986;2023-05-15T07:35:37;8.53;;;6.57;;
12334;SDS011;6233;51.560;9.986;2023-05-15T07:38:39;8.30;;;7.23;;
12334;SDS011;6233;51.560;9.986;2023-05-15T07:41:41;7.87;;;7.17;;
12334;SDS011;6233;51.560;9.986;2023-05-15T07:44:43;7.70;;;7.00;;
12334;SDS011;6233;51.560;9.986;2023-05-15T07:47:49;6.37;;;5.73;;
12334;SDS011;6233;51.560;9.986;2023-05-15T07:50:52;8.27;;;6.63;;
12334;SDS011;6233;51.560;9.986;2023-05-15T07:53:55;9.57;;;8.60;;
12334;SDS011;6233;51.560;9.986;2023-05-15T07:56:57;14.43;;;12.93;;
12334;SDS011;6233;51.560;9.986;2023-05-15T08:03:17;11.20;;;10.00;;
12334;SDS011;6233;51.560;9.986;2023-05-15T08:06:20;10.70;;;9.33;;
12334;SDS011;6233;51.560;9.986;2023-05-15T08:09:22;9.33;;;8.43;;
12334;SDS011;6233;51.560;9.986;2023-05-15T08:12:24;7.93;;;7.07;;
12334;SDS011;6233;51.560;9.986;2023-05-15T08:15:26;7.07;;;6.37;;
12334;SDS011;6233;51.560;9.986;2023-05-15T08:18:29;8.03;;;7.33;;
12334;SDS011;6233;51.560;9.986;2023-05-15T08:21:31;9.47;;;8.10;;
12334;SDS011;6233;51.560;9.986;2023-05-15T08:24:33;7.03;;;6.43;;
12334;SDS011;6233;51.560;9.986;2023-05-15T08:27:35;9.50;;;7.33;;
12334;SDS011;6233;51.560;9.986;2023-05-15T08:30:38;6.20;;;5.70;;
12334;SDS011;6233;51.560;9.986;2023-05-15T08:33:40;7.67;;;6.30;;
12334;SDS011;6233;51.560;9.986;2023-05-15T08:36:42;7.70;;;6.93;;
12334;SDS011;6233;51.560;9.986;2023-05-15T08:39:45;8.97;;;7.10;;
12334;SDS011;6233;51.560;9.986;2023-05-15T08:42:48;9.10;;;6.47;;
12334;SDS011;6233;51.560;9.986;2023-05-15T08:45:53;6.80;;;6.20;;
12334;SDS011;6233;51.560;9.986;2023-05-15T08:52:17;6.43;;;5.80;;
12334;SDS011;6233;51.560;9.986;2023-05-15T08:55:20;7.53;;;6.07;;
12334;SDS011;6233;51.560;9.986;2023-05-15T08:58:24;6.23;;;5.40;;
12334;SDS011;6233;51.560;9.986;2023-05-15T09:01:28;6.67;;;5.10;;
12334;SDS011;6233;51.560;9.986;2023-05-15T09:04:31;9.30;;;6.17;;
12334;SDS011;6233;51.560;9.986;2023-05-15T09:07:33;6.23;;;5.63;;
12334;SDS011;6233;51.560;9.986;2023-05-15T09:10:35;8.57;;;5.63;;
12334;SDS011;6233;51.560;9.986;2023-05-15T09:13:38;5.90;;;4.90;;
12334;SDS011;6233;51.560;9.986;2023-05-15T09:16:40;7.47;;;5.40;;
12334;SDS011;6233;51.560;9.986;2023-05-15T09:19:42;5.53;;;4.90;;
12334;SDS011;6233;51.560;9.986;2023-05-15T09:22:46;5.80;;;5.03;;
12334;SDS011;6233;51.560;9.986;2023-05-15T09:25:48;6.03;;;5.43;;
12334;SDS011;6233;51.560;9.986;2023-05-15T09:29:00;6.27;;;5.20;;
12334;SDS011;6233;51.560;9.986;2023-05-15T09:32:07;5.80;;;5.10;;
12334;SDS011;6233;51.560;9.986;2023-05-15T09:35:26;5.87;;;5.27;;
12334;SDS011;6233;51.560;9.986;2023-05-15T09:38:31;6.57;;;5.60;;
12334;SDS011;6233;51.560;9.986;2023-05-15T09:41:33;9.80;;;6.00;;
12334;SDS011;6233;51.560;9.986;2023-05-15T09:44:38;6.60;;;5.83;;
12334;SDS011;6233;51.560;9.986;2023-05-15T09:47:41;5.80;;;5.33;;
12334;SDS011;6233;51.560;9.986;2023-05-15T09:50:43;5.93;;;5.10;;
12334;SDS011;6233;51.560;9.986;2023-05-15T09:53:50;6.10;;;5.47;;
12334;SDS011;6233;51.560;9.986;2023-05-15T10:00:57;7.03;;;5.93;;
12334;SDS011;6233;51.560;9.986;2023-05-15T10:04:02;7.27;;;6.03;;
12334;SDS011;6233;51.560;9.986;2023-05-15T10:07:05;7.20;;;6.43;;
12334;SDS011;6233;51.560;9.986;2023-05-15T10:10:09;6.23;;;5.63;;
12334;SDS011;6233;51.560;9.986;2023-05-15T10:13:11;6.70;;;6.10;;
12334;SDS011;6233;51.560;9.986;2023-05-15T10:16:13;7.13;;;6.50;;
12334;SDS011;6233;51.560;9.986;2023-05-15T10:19:18;8.80;;;5.40;;
12334;SDS011;6233;51.560;9.986;2023-05-15T10:22:25;6.37;;;5.70;;
12334;SDS011;6233;51.560;9.986;2023-05-15T10:25:36;5.90;;;5.27;;
12334;SDS011;6233;51.560;9.986;2023-05-15T10:28:40;5.60;;;5.03;;
12334;SDS011;6233;51.560;9.986;2023-05-15T10:31:45;6.13;;;5.53;;
12334;SDS011;6233;51.560;9.986;2023-05-15T10:34:49;6.20;;;5.30;;
12334;SDS011;6233;51.560;9.986;2023-05-15T10:37:52;6.63;;;5.37;;
12334;SDS011;6233;51.560;9.986;2023-05-15T10:40:54;6.37;;;5.37;;
12334;SDS011;6233;51.560;9.986;2023-05-15T10:44:17;5.73;;;4.77;;
12334;SDS011;6233;51.560;9.986;2023-05-15T10:47:20;5.47;;;4.97;;
12334;SDS011;6233;51.560;9.986;2023-05-15T10:50:22;7.17;;;5.27;;
12334;SDS011;6233;51.560;9.986;2023-05-15T10:53:25;5.73;;;5.23;;
12334;SDS011;6233;51.560;9.986;2023-05-15T10:56:30;5.93;;;5.33;;
12334;SDS011;6233;51.560;9.986;2023-05-15T10:59:33;5.83;;;5.23;;
12334;SDS011;6233;51.560;9.986;2023-05-15T11:02:38;6.57;;;5.40;;
12334;SDS011;6233;51.560;9.986;2023-05-15T11:12:22;6.53;;;5.57;;
12334;SDS011;6233;51.560;9.986;2023-05-15T11:15:25;5.77;;;5.07;;
12334;SDS011;6233;51.560;9.986;2023-05-15T11:18:43;6.67;;;5.53;;
12334;SDS011;6233;51.560;9.986;2023-05-15T11:21:45;5.90;;;5.40;;
12334;SDS011;6233;51.560;9.986;2023-05-15T11:27:53;6.43;;;5.40;;
12334;SDS011;6233;51.560;9.986;2023-05-15T11:30:59;6.07;;;5.23;;
12334;SDS011;6233;51.560;9.986;2023-05-15T11:34:07;7.83;;;6.40;;
12334;SDS011;6233;51.560;9.986;2023-05-15T11:37:15;5.47;;;4.97;;
12334;SDS011;6233;51.560;9.986;2023-05-15T11:40:19;7.13;;;5.50;;
12334;SDS011;6233;51.560;9.986;2023-05-15T11:43:31;8.73;;;6.67;;
12334;SDS011;6233;51.560;9.986;2023-05-15T11:46:33;8.03;;;5.33;;
12334;SDS011;6233;51.560;9.986;2023-05-15T11:49:36;6.90;;;5.70;;
12334;SDS011;6233;51.560;9.986;2023-05-15T11:52:38;6.43;;;5.67;;
12334;SDS011;6233;51.560;9.986;2023-05-15T11:55:41;6.47;;;5.10;;
12334;SDS011;6233;51.560;9.986;2023-05-15T11:58:46;6.53;;;5.83;;
12334;SDS011;6233;51.560;9.986;2023-05-15T12:01:49;6.00;;;5.40;;
12334;SDS011;6233;51.560;9.986;2023-05-15T12:04:51;7.47;;;5.50;;
12334;SDS011;6233;51.560;9.986;2023-05-15T12:07:53;6.60;;;5.70;;
12334;SDS011;6233;51.560;9.986;2023-05-15T12:10:57;5.70;;;5.10;;
12334;SDS011;6233;51.560;9.986;2023-05-15T12:13:59;6.57;;;5.10;;
12334;SDS011;6233;51.560;9.986;2023-05-15T12:17:01;5.93;;;4.90;;
12334;SDS011;6233;51.560;9.986;2023-05-15T12:20:07;7.13;;;5.23;;
12334;SDS011;6233;51.560;9.986;2023-05-15T12:23:13;7.53;;;5.10;;
12334;SDS011;6233;51.560;9.986;2023-05-15T12:26:15;6.97;;;5.87;;
12334;SDS011;6233;51.560;9.986;2023-05-15T12:29:17;6.20;;;5.43;;
12334;SDS011;6233;51.560;9.986;2023-05-15T12:32:20;6.07;;;5.53;;
12334;SDS011;6233;51.560;9.986;2023-05-15T12:35:22;8.50;;;5.67;;
12334;SDS011;6233;51.560;9.986;2023-05-15T12:38:24;5.63;;;5.13;;
12334;SDS011;6233;51.560;9.986;2023-05-15T12:41:26;5.97;;;5.37;;
12334;SDS011;6233;51.560;9.986;2023-05-15T12:44:29;9.80;;;7.53;;
12334;SDS011;6233;51.560;9.986;2023-05-15T12:47:32;8.97;;;6.93;;
12334;SDS011;6233;51.560;9.986;2023-05-15T12:50:34;7.00;;;6.20;;
12334;SDS011;6233;51.560;9.986;2023-05-15T12:53:37;9.70;;;8.70;;
12334;SDS011;6233;51.560;9.986;2023-05-15T12:56:40;9.40;;;8.07;;
12334;SDS011;6233;51.560;9.986;2023-05-15T12:59:42;10.60;;;7.97;;
12334;SDS011;6233;51.560;9.986;2023-05-15T13:02:44;8.67;;;6.97;;
12334;SDS011;6233;51.560;9.986;2023-05-15T13:05:46;7.83;;;6.53;;
12334;SDS011;6233;51.560;9.986;2023-05-15T13:08:49;7.97;;;7.17;;
12334;SDS011;6233;51.560;9.986;2023-05-15T13:11:53;7.50;;;6.70;;
12334;SDS011;6233;51.560;9.986;2023-05-15T13:14:56;9.73;;;6.97;;
12334;SDS011;6233;51.560;9.986;2023-05-15T13:18:03;6.90;;;6.30;;
12334;SDS011;6233;51.560;9.986;2023-05-15T13:21:06;7.30;;;6.60;;
12334;SDS011;6233;51.560;9.986;2023-05-15T13:24:08;8.57;;;5.83;;
12334;SDS011;6233;51.560;9.986;2023-05-15T13:27:10;5.93;;;5.20;;
12334;SDS011;6233;51.560;9.986;2023-05-15T13:30:13;6.47;;;5.60;;
12334;SDS011;6233;51.560;9.986;2023-05-15T13:33:15;7.33;;;6.60;;
12334;SDS011;6233;51.560;9.986;2023-05-15T13:36:18;9.30;;;7.77;;
12334;SDS011;6233;51.560;9.986;2023-05-15T13:39:20;9.40;;;8.50;;
12334;SDS011;6233;51.560;9.986;2023-05-15T13:42:22;11.73;;;8.67;;
12334;SDS011;6233;51.560;9.986;2023-05-15T13:45:24;8.53;;;7.73;;
12334;SDS011;6233;51.560;9.986;2023-05-15T13:48:26;8.37;;;7.50;;
12334;SDS011;6233;51.560;9.986;2023-05-15T13:51:28;8.10;;;7.17;;
12334;SDS011;6233;51.560;9.986;2023-05-15T13:54:30;8.77;;;7.93;;
12334;SDS011;6233;51.560;9.986;2023-05-15T13:57:32;8.40;;;7.50;;
12334;SDS011;6233;51.560;9.986;2023-05-15T14:00:34;8.13;;;6.70;;
12334;SDS011;6233;51.560;9.986;2023-05-15T14:03:36;7.60;;;6.90;;
12334;SDS011;6233;51.560;9.986;2023-05-15T14:06:39;8.13;;;7.30;;
12334;SDS011;6233;51.560;9.986;2023-05-15T14:09:41;7.23;;;6.57;;
12334;SDS011;6233;51.560;9.986;2023-05-15T14:12:43;6.70;;;6.00;;
12334;SDS011;6233;51.560;9.986;2023-05-15T14:15:46;7.87;;;6.50;;
12334;SDS011;6233;51.560;9.986;2023-05-15T14:18:48;6.17;;;5.57;;
12334;SDS011;6233;51.560;9.986;2023-05-15T14:21:51;6.50;;;6.00;;
12334;SDS011;6233;51.560;9.986;2023-05-15T14:24:53;6.80;;;6.20;;
12334;SDS011;6233;51.560;9.986;2023-05-15T14:27:55;6.83;;;6.03;;
12334;SDS011;6233;51.560;9.986;2023-05-15T14:30:57;7.47;;;6.60;;
12334;SDS011;6233;51.560;9.986;2023-05-15T14:34:00;6.93;;;6.23;;
12334;SDS011;6233;51.560;9.986;2023-05-15T14:37:02;7.17;;;6.30;;
12334;SDS011;6233;51.560;9.986;2023-05-15T14:40:04;6.63;;;5.93;;
12334;SDS011;6233;51.560;9.986;2023-05-15T14:43:08;7.00;;;6.33;;
12334;SDS011;6233;51.560;9.986;2023-05-15T14:46:10;5.63;;;5.10;;
12334;SDS011;6233;51.560;9.986;2023-05-15T14:49:12;8.43;;;5.30;;
12334;SDS011;6233;51.560;9.986;2023-05-15T14:52:14;5.30;;;4.87;;
12334;SDS011;6233;51.560;9.986;2023-05-15T14:55:17;7.07;;;5.00;;
12334;SDS011;6233;51.560;9.986;2023-05-15T14:58:22;4.80;;;4.40;;
12334;SDS011;6233;51.560;9.986;2023-05-15T15:01:24;5.70;;;5.17;;
12334;SDS011;6233;51.560;9.986;2023-05-15T15:04:26;6.13;;;5.53;;
12334;SDS011;6233;51.560;9.986;2023-05-15T15:07:30;6.07;;;5.57;;
12334;SDS011;6233;51.560;9.986;2023-05-15T15:10:52;6.30;;;5.70;;
12334;SDS011;6233;51.560;9.986;2023-05-15T15:13:54;6.47;;;5.97;;
12334;SDS011;6233;51.560;9.986;2023-05-15T15:16:57;6.53;;;5.93;;
12334;SDS011;6233;51.560;9.986;2023-05-15T15:19:59;6.03;;;5.43;;
12334;SDS011;6233;51.560;9.986;2023-05-15T15:23:01;6.17;;;5.63;;
12334;SDS011;6233;51.560;9.986;2023-05-15T15:26:04;6.30;;;5.67;;
12334;SDS011;6233;51.560;9.986;2023-05-15T15:29:07;5.90;;;5.30;;
12334;SDS011;6233;51.560;9.986;2023-05-15T15:35:34;6.00;;;5.40;;
12334;SDS011;6233;51.560;9.986;2023-05-15T15:38:36;6.00;;;5.07;;
12334;SDS011;6233;51.560;9.986;2023-05-15T15:41:41;5.33;;;4.80;;
12334;SDS011;6233;51.560;9.986;2023-05-15T15:44:44;5.17;;;4.67;;
12334;SDS011;6233;51.560;9.986;2023-05-15T15:47:46;5.07;;;4.67;;
12334;SDS011;6233;51.560;9.986;2023-05-15T15:50:48;5.90;;;4.50;;
12334;SDS011;6233;51.560;9.986;2023-05-15T15:53:52;5.83;;;5.13;;
12334;SDS011;6233;51.560;9.986;2023-05-15T15:56:54;6.20;;;5.30;;
12334;SDS011;6233;51.560;9.986;2023-05-15T15:59:56;6.03;;;5.47;;
12334;SDS011;6233;51.560;9.986;2023-05-15T16:02:58;6.33;;;5.70;;
12334;SDS011;6233;51.560;9.986;2023-05-15T16:06:00;8.20;;;6.33;;
12334;SDS011;6233;51.560;9.986;2023-05-15T16:09:03;6.30;;;5.80;;
12334;SDS011;6233;51.560;9.986;2023-05-15T16:12:11;6.67;;;6.00;;
12334;SDS011;6233;51.560;9.986;2023-05-15T16:15:13;6.83;;;6.23;;
12334;SDS011;6233;51.560;9.986;2023-05-15T16:18:24;7.73;;;6.93;;
12334;SDS011;6233;51.560;9.986;2023-05-15T16:21:26;6.53;;;5.93;;
12334;SDS011;6233;51.560;9.986;2023-05-15T16:24:28;6.33;;;5.73;;
12334;SDS011;6233;51.560;9.986;2023-05-15T16:27:30;6.93;;;6.23;;
12334;SDS011;6233;51.560;9.986;2023-05-15T16:30:32;6.90;;;6.20;;
12334;SDS011;6233;51.560;9.986;2023-05-15T16:33:49;7.33;;;6.63;;
12334;SDS011;6233;51.560;9.986;2023-05-15T16:36:52;7.27;;;5.50;;
12334;SDS011;6233;51.560;9.986;2023-05-15T16:39:54;5.67;;;5.17;;
12334;SDS011;6233;51.560;9.986;2023-05-15T16:42:56;5.90;;;5.40;;
12334;SDS011;6233;51.560;9.986;2023-05-15T16:45:58;5.70;;;5.20;;
12334;SDS011;6233;51.560;9.986;2023-05-15T16:49:00;6.00;;;5.40;;
12334;SDS011;6233;51.560;9.986;2023-05-15T16:52:02;5.83;;;5.33;;
12334;SDS011;6233;51.560;9.986;2023-05-15T16:55:05;6.33;;;5.73;;
12334;SDS011;6233;51.560;9.986;2023-05-15T16:58:07;5.90;;;5.30;;
12334;SDS011;6233;51.560;9.986;2023-05-15T17:01:09;7.43;;;6.60;;
12334;SDS011;6233;51.560;9.986;2023-05-15T17:04:11;8.43;;;6.43;;
12334;SDS011;6233;51.560;9.986;2023-05-15T17:07:13;7.90;;;6.33;;
12334;SDS011;6233;51.560;9.986;2023-05-15T17:10:15;6.77;;;6.17;;
12334;SDS011;6233;51.560;9.986;2023-05-15T17:13:24;7.30;;;6.60;;
12334;SDS011;6233;51.560;9.986;2023-05-15T17:16:28;6.40;;;5.80;;
12334;SDS011;6233;51.560;9.986;2023-05-15T17:19:31;7.13;;;6.20;;
12334;SDS011;6233;51.560;9.986;2023-05-15T17:22:34;7.10;;;6.43;;
12334;SDS011;6233;51.560;9.986;2023-05-15T17:25:52;7.67;;;6.87;;
12334;SDS011;6233;51.560;9.986;2023-05-15T17:28:55;7.83;;;6.70;;
12334;SDS011;6233;51.560;9.986;2023-05-15T17:31:57;7.83;;;7.03;;
12334;SDS011;6233;51.560;9.986;2023-05-15T17:34:59;6.83;;;6.20;;
12334;SDS011;6233;51.560;9.986;2023-05-15T17:38:01;6.30;;;5.70;;
12334;SDS011;6233;51.560;9.986;2023-05-15T17:41:04;6.40;;;5.80;;
12334;SDS011;6233;51.560;9.986;2023-05-15T17:44:06;7.60;;;6.33;;
12334;SDS011;6233;51.560;9.986;2023-05-15T17:47:08;8.87;;;7.00;;
12334;SDS011;6233;51.560;9.986;2023-05-15T17:50:10;8.50;;;7.23;;
12334;SDS011;6233;51.560;9.986;2023-05-15T17:53:13;9.60;;;8.00;;
12334;SDS011;6233;51.560;9.986;2023-05-15T17:56:15;9.93;;;8.90;;
12334;SDS011;6233;51.560;9.986;2023-05-15T17:59:18;9.10;;;8.27;;
12334;SDS011;6233;51.560;9.986;2023-05-15T18:02:20;8.77;;;7.87;;
12334;SDS011;6233;51.560;9.986;2023-05-15T18:05:22;8.90;;;8.10;;
12334;SDS011;6233;51.560;9.986;2023-05-15T18:08:25;8.37;;;7.57;;
12334;SDS011;6233;51.560;9.986;2023-05-15T18:11:27;8.37;;;7.57;;
12334;SDS011;6233;51.560;9.986;2023-05-15T18:14:29;9.37;;;8.47;;
12334;SDS011;6233;51.560;9.986;2023-05-15T18:21:06;9.20;;;8.30;;
12334;SDS011;6233;51.560;9.986;2023-05-15T18:24:08;9.13;;;8.23;;
12334;SDS011;6233;51.560;9.986;2023-05-15T18:27:10;9.07;;;8.17;;
12334;SDS011;6233;51.560;9.986;2023-05-15T18:30:12;10.07;;;9.10;;
12334;SDS011;6233;51.560;9.986;2023-05-15T18:33:15;9.50;;;8.60;;
12334;SDS011;6233;51.560;9.986;2023-05-15T18:36:17;9.53;;;8.60;;
12334;SDS011;6233;51.560;9.986;2023-05-15T18:39:19;11.17;;;10.03;;
12334;SDS011;6233;51.560;9.986;2023-05-15T18:42:21;9.20;;;8.30;;
12334;SDS011;6233;51.560;9.986;2023-05-15T18:45:25;10.33;;;9.20;;
12334;SDS011;6233;51.560;9.986;2023-05-15T18:48:27;9.17;;;8.23;;
12334;SDS011;6233;51.560;9.986;2023-05-15T18:51:29;11.03;;;9.97;;
12334;SDS011;6233;51.560;9.986;2023-05-15T18:54:32;17.53;;;15.63;;
12334;SDS011;6233;51.560;9.986;2023-05-15T18:57:34;13.33;;;12.03;;
12334;SDS011;6233;51.560;9.986;2023-05-15T19:00:36;12.40;;;11.20;;
12334;SDS011;6233;51.560;9.986;2023-05-15T19:03:39;13.40;;;12.10;;
12334;SDS011;6233;51.560;9.986;2023-05-15T19:06:42;12.97;;;11.50;;
12334;SDS011;6233;51.560;9.986;2023-05-15T19:09:44;13.37;;;11.97;;
12334;SDS011;6233;51.560;9.986;2023-05-15T19:12:46;12.47;;;11.33;;
12334;SDS011;6233;51.560;9.986;2023-05-15T19:15:49;12.10;;;10.50;;
12334;SDS011;6233;51.560;9.986;2023-05-15T19:18:51;13.43;;;11.93;;
12334;SDS011;6233;51.560;9.986;2023-05-15T19:21:53;12.50;;;11.30;;
12334;SDS011;6233;51.560;9.986;2023-05-15T19:24:55;12.30;;;11.10;;
12334;SDS011;6233;51.560;9.986;2023-05-15T19:27:58;12.60;;;11.47;;